sensor_id;sensor_type;location;lat;lon;timestamp;temperature;humidity
1936;DHT22;969;49.892;10.896;2024-02-15T00:01:55;21.10;55.40
1936;DHT22;969;49.892;10.896;2024-02-15T00:04:21;21.10;55.40
1936;DHT22;969;49.892;10.896;2024-02-15T00:06:47;21.10;55.40
1936;DHT22;969;49.892;10.896;2024-02-15T00:09:12;21.10;55.90
1936;DHT22;969;49.892;10.896;2024-02-15T00:11:38;21.00;55.30
1936;DHT22;969;49.892;10.896;2024-02-15T00:14:04;21.00;55.30
1936;DHT22;969;49.892;10.896;2024-02-15T00:16:30;21.00;55.30
1936;DHT22;969;49.892;10.896;2024-02-15T00:18:56;21.00;55.30
1936;DHT22;969;49.892;10.896;2024-02-15T00:21:22;21.00;55.30
1936;DHT22;969;49.892;10.896;2024-02-15T00:23:48;21.00;55.30
1936;DHT22;969;49.892;10.896;2024-02-15T00:26:14;21.00;55.30
1936;DHT22;969;49.892;10.896;2024-02-15T00:28:43;21.00;55.30
1936;DHT22;969;49.892;10.896;2024-02-15T00:31:09;21.00;55.30
1936;DHT22;969;49.892;10.896;2024-02-15T00:33:35;21.00;55.30
1936;DHT22;969;49.892;10.896;2024-02-15T00:36:04;21.00;55.30
1936;DHT22;969;49.892;10.896;2024-02-15T00:38:32;21.00;55.40
1936;DHT22;969;49.892;10.896;2024-02-15T00:40:58;21.00;55.30
1936;DHT22;969;49.892;10.896;2024-02-15T00:43:26;21.00;55.40
1936;DHT22;969;49.892;10.896;2024-02-15T00:45:51;21.00;55.40
1936;DHT22;969;49.892;10.896;2024-02-15T00:48:17;21.00;55.40
1936;DHT22;969;49.892;10.896;2024-02-15T00:50:42;21.00;55.40
1936;DHT22;969;49.892;10.896;2024-02-15T00:53:08;21.00;55.40
1936;DHT22;969;49.892;10.896;2024-02-15T00:55:33;21.00;55.40
1936;DHT22;969;49.892;10.896;2024-02-15T00:57:59;21.00;55.40
1936;DHT22;969;49.892;10.896;2024-02-15T01:00:25;21.00;55.40
1936;DHT22;969;49.892;10.896;2024-02-15T01:02:51;21.00;56.00
1936;DHT22;969;49.892;10.896;2024-02-15T01:05:18;21.00;55.40
1936;DHT22;969;49.892;10.896;2024-02-15T01:07:44;21.00;55.40
1936;DHT22;969;49.892;10.896;2024-02-15T01:10:10;21.00;55.40
1936;DHT22;969;49.892;10.896;2024-02-15T01:12:35;21.00;55.40
1936;DHT22;969;49.892;10.896;2024-02-15T01:15:01;20.90;55.30
1936;DHT22;969;49.892;10.896;2024-02-15T01:17:28;21.00;55.40
1936;DHT22;969;49.892;10.896;2024-02-15T01:19:54;21.00;55.40
1936;DHT22;969;49.892;10.896;2024-02-15T01:22:20;21.00;55.40
1936;DHT22;969;49.892;10.896;2024-02-15T01:24:52;20.90;55.30
1936;DHT22;969;49.892;10.896;2024-02-15T01:27:18;21.00;55.40
1936;DHT22;969;49.892;10.896;2024-02-15T01:29:43;20.90;55.30
1936;DHT22;969;49.892;10.896;2024-02-15T01:32:09;20.90;55.30
1936;DHT22;969;49.892;10.896;2024-02-15T01:34:35;20.90;55.30
1936;DHT22;969;49.892;10.896;2024-02-15T01:37:00;21.00;55.40
1936;DHT22;969;49.892;10.896;2024-02-15T01:39:26;20.90;55.30
1936;DHT22;969;49.892;10.896;2024-02-15T01:41:52;20.90;55.30
1936;DHT22;969;49.892;10.896;2024-02-15T01:44:21;20.90;55.30
1936;DHT22;969;49.892;10.896;2024-02-15T01:46:47;20.90;55.30
1936;DHT22;969;49.892;10.896;2024-02-15T01:49:14;20.90;55.30
1936;DHT22;969;49.892;10.896;2024-02-15T01:51:41;20.90;55.30
1936;DHT22;969;49.892;10.896;2024-02-15T01:54:09;21.00;55.40
1936;DHT22;969;49.892;10.896;2024-02-15T01:56:35;20.90;55.30
1936;DHT22;969;49.892;10.896;2024-02-15T01:59:02;20.90;55.30
1936;DHT22;969;49.892;10.896;2024-02-15T02:01:30;20.90;55.40
1936;DHT22;969;49.892;10.896;2024-02-15T02:03:58;20.90;55.40
1936;DHT22;969;49.892;10.896;2024-02-15T02:06:24;20.90;55.30
1936;DHT22;969;49.892;10.896;2024-02-15T02:08:50;20.90;55.30
1936;DHT22;969;49.892;10.896;2024-02-15T02:11:15;20.90;55.30
1936;DHT22;969;49.892;10.896;2024-02-15T02:13:41;20.90;55.30
1936;DHT22;969;49.892;10.896;2024-02-15T02:16:24;20.90;55.40
1936;DHT22;969;49.892;10.896;2024-02-15T02:18:51;20.90;55.40
1936;DHT22;969;49.892;10.896;2024-02-15T02:21:17;20.90;55.30
1936;DHT22;969;49.892;10.896;2024-02-15T02:23:45;20.90;55.40
1936;DHT22;969;49.892;10.896;2024-02-15T02:26:12;20.90;55.40
1936;DHT22;969;49.892;10.896;2024-02-15T02:28:37;20.90;55.40
1936;DHT22;969;49.892;10.896;2024-02-15T02:31:03;20.90;55.40
1936;DHT22;969;49.892;10.896;2024-02-15T02:33:29;20.90;55.40
1936;DHT22;969;49.892;10.896;2024-02-15T02:35:54;20.90;55.40
1936;DHT22;969;49.892;10.896;2024-02-15T02:38:22;20.90;55.40
1936;DHT22;969;49.892;10.896;2024-02-15T02:40:51;20.90;55.40
1936;DHT22;969;49.892;10.896;2024-02-15T02:43:17;20.90;55.40
1936;DHT22;969;49.892;10.896;2024-02-15T02:45:43;20.90;55.40
1936;DHT22;969;49.892;10.896;2024-02-15T02:48:10;20.90;55.40
1936;DHT22;969;49.892;10.896;2024-02-15T02:50:37;20.90;55.40
1936;DHT22;969;49.892;10.896;2024-02-15T02:53:03;20.90;55.40
1936;DHT22;969;49.892;10.896;2024-02-15T02:55:28;20.90;55.40
1936;DHT22;969;49.892;10.896;2024-02-15T02:57:55;20.90;55.40
1936;DHT22;969;49.892;10.896;2024-02-15T03:00:20;20.90;55.40
1936;DHT22;969;49.892;10.896;2024-02-15T03:02:47;20.90;55.40
1936;DHT22;969;49.892;10.896;2024-02-15T03:05:13;20.90;55.40
1936;DHT22;969;49.892;10.896;2024-02-15T03:07:39;20.90;55.40
1936;DHT22;969;49.892;10.896;2024-02-15T03:10:08;20.80;55.30
1936;DHT22;969;49.892;10.896;2024-02-15T03:12:35;20.80;55.30
1936;DHT22;969;49.892;10.896;2024-02-15T03:15:05;20.90;55.40
1936;DHT22;969;49.892;10.896;2024-02-15T03:17:40;20.80;55.30
1936;DHT22;969;49.892;10.896;2024-02-15T03:20:06;20.80;55.30
1936;DHT22;969;49.892;10.896;2024-02-15T03:23:00;20.80;55.30
1936;DHT22;969;49.892;10.896;2024-02-15T03:25:26;20.80;55.30
1936;DHT22;969;49.892;10.896;2024-02-15T03:27:55;20.80;55.30
1936;DHT22;969;49.892;10.896;2024-02-15T03:30:26;20.80;55.30
1936;DHT22;969;49.892;10.896;2024-02-15T03:32:52;20.80;55.30
1936;DHT22;969;49.892;10.896;2024-02-15T03:35:19;20.80;55.30
1936;DHT22;969;49.892;10.896;2024-02-15T03:37:45;20.80;55.30
1936;DHT22;969;49.892;10.896;2024-02-15T03:40:12;20.80;55.30
1936;DHT22;969;49.892;10.896;2024-02-15T03:42:38;20.80;55.30
1936;DHT22;969;49.892;10.896;2024-02-15T03:45:04;20.80;55.30
1936;DHT22;969;49.892;10.896;2024-02-15T03:47:32;20.80;55.30
1936;DHT22;969;49.892;10.896;2024-02-15T03:49:59;20.80;55.30
1936;DHT22;969;49.892;10.896;2024-02-15T03:52:24;20.80;55.30
1936;DHT22;969;49.892;10.896;2024-02-15T03:54:50;20.80;55.30
1936;DHT22;969;49.892;10.896;2024-02-15T03:57:16;20.80;55.30
1936;DHT22;969;49.892;10.896;2024-02-15T03:59:42;20.80;55.30
1936;DHT22;969;49.892;10.896;2024-02-15T04:02:08;20.80;55.30
1936;DHT22;969;49.892;10.896;2024-02-15T04:04:39;20.80;55.30
1936;DHT22;969;49.892;10.896;2024-02-15T04:07:07;20.80;55.30
1936;DHT22;969;49.892;10.896;2024-02-15T04:09:33;20.80;55.30
1936;DHT22;969;49.892;10.896;2024-02-15T04:12:01;20.80;55.30
1936;DHT22;969;49.892;10.896;2024-02-15T04:14:27;20.80;55.30
1936;DHT22;969;49.892;10.896;2024-02-15T04:16:53;20.80;55.30
1936;DHT22;969;49.892;10.896;2024-02-15T04:19:18;20.80;55.30
1936;DHT22;969;49.892;10.896;2024-02-15T04:21:45;20.80;55.30
1936;DHT22;969;49.892;10.896;2024-02-15T04:24:12;20.80;55.30
1936;DHT22;969;49.892;10.896;2024-02-15T04:26:38;20.80;55.30
1936;DHT22;969;49.892;10.896;2024-02-15T04:29:04;20.80;55.30
1936;DHT22;969;49.892;10.896;2024-02-15T04:31:30;20.80;55.30
1936;DHT22;969;49.892;10.896;2024-02-15T04:33:56;20.80;55.30
1936;DHT22;969;49.892;10.896;2024-02-15T04:36:22;20.80;55.30
1936;DHT22;969;49.892;10.896;2024-02-15T04:38:52;20.80;55.30
1936;DHT22;969;49.892;10.896;2024-02-15T04:41:18;20.80;55.30
1936;DHT22;969;49.892;10.896;2024-02-15T04:43:52;20.80;55.30
1936;DHT22;969;49.892;10.896;2024-02-15T04:46:18;20.80;55.30
1936;DHT22;969;49.892;10.896;2024-02-15T04:48:50;20.80;55.30
1936;DHT22;969;49.892;10.896;2024-02-15T04:51:16;20.80;55.30
1936;DHT22;969;49.892;10.896;2024-02-15T04:53:43;20.80;55.30
1936;DHT22;969;49.892;10.896;2024-02-15T04:56:08;20.80;55.30
1936;DHT22;969;49.892;10.896;2024-02-15T04:58:40;20.80;55.30
1936;DHT22;969;49.892;10.896;2024-02-15T05:01:14;20.80;55.30
1936;DHT22;969;49.892;10.896;2024-02-15T05:03:42;20.80;55.30
1936;DHT22;969;49.892;10.896;2024-02-15T05:06:07;20.80;55.30
1936;DHT22;969;49.892;10.896;2024-02-15T05:08:34;20.80;55.30
1936;DHT22;969;49.892;10.896;2024-02-15T05:11:11;20.80;55.30
1936;DHT22;969;49.892;10.896;2024-02-15T05:13:46;20.80;55.30
1936;DHT22;969;49.892;10.896;2024-02-15T05:16:12;20.80;55.80
1936;DHT22;969;49.892;10.896;2024-02-15T05:18:38;20.80;55.30
1936;DHT22;969;49.892;10.896;2024-02-15T05:21:05;20.80;55.30
1936;DHT22;969;49.892;10.896;2024-02-15T05:23:40;20.80;55.30
1936;DHT22;969;49.892;10.896;2024-02-15T05:26:09;20.90;55.30
1936;DHT22;969;49.892;10.896;2024-02-15T05:28:35;20.90;55.30
1936;DHT22;969;49.892;10.896;2024-02-15T05:31:13;20.80;55.20
1936;DHT22;969;49.892;10.896;2024-02-15T05:33:51;20.90;55.30
1936;DHT22;969;49.892;10.896;2024-02-15T05:36:21;20.90;55.30
1936;DHT22;969;49.892;10.896;2024-02-15T05:38:52;20.90;55.30
1936;DHT22;969;49.892;10.896;2024-02-15T05:41:18;20.90;55.30
1936;DHT22;969;49.892;10.896;2024-02-15T05:43:45;20.80;55.70
1936;DHT22;969;49.892;10.896;2024-02-15T05:46:12;20.90;55.30
1936;DHT22;969;49.892;10.896;2024-02-15T05:48:38;20.90;55.20
1936;DHT22;969;49.892;10.896;2024-02-15T05:51:05;20.90;55.20
1936;DHT22;969;49.892;10.896;2024-02-15T05:53:32;20.90;55.30
1936;DHT22;969;49.892;10.896;2024-02-15T05:56:02;20.90;55.20
1936;DHT22;969;49.892;10.896;2024-02-15T05:58:30;20.90;55.30
1936;DHT22;969;49.892;10.896;2024-02-15T06:00:55;20.90;55.20
1936;DHT22;969;49.892;10.896;2024-02-15T06:03:29;20.80;55.20
1936;DHT22;969;49.892;10.896;2024-02-15T06:05:55;20.80;55.20
1936;DHT22;969;49.892;10.896;2024-02-15T06:08:24;20.80;55.50
1936;DHT22;969;49.892;10.896;2024-02-15T06:10:50;20.80;55.20
1936;DHT22;969;49.892;10.896;2024-02-15T06:13:16;20.90;55.30
1936;DHT22;969;49.892;10.896;2024-02-15T06:15:41;20.90;55.30
1936;DHT22;969;49.892;10.896;2024-02-15T06:18:07;20.90;55.20
1936;DHT22;969;49.892;10.896;2024-02-15T06:20:35;20.90;55.30
1936;DHT22;969;49.892;10.896;2024-02-15T06:23:03;20.90;55.30
1936;DHT22;969;49.892;10.896;2024-02-15T06:25:31;20.90;55.30
1936;DHT22;969;49.892;10.896;2024-02-15T06:27:57;20.90;55.30
1936;DHT22;969;49.892;10.896;2024-02-15T06:30:28;20.90;55.30
1936;DHT22;969;49.892;10.896;2024-02-15T06:33:12;20.90;55.90
1936;DHT22;969;49.892;10.896;2024-02-15T06:35:56;21.00;55.30
1936;DHT22;969;49.892;10.896;2024-02-15T06:38:40;20.90;55.60
1936;DHT22;969;49.892;10.896;2024-02-15T06:41:24;20.90;55.20
1936;DHT22;969;49.892;10.896;2024-02-15T06:43:50;21.00;55.30
1936;DHT22;969;49.892;10.896;2024-02-15T06:46:16;21.00;55.30
1936;DHT22;969;49.892;10.896;2024-02-15T06:48:42;21.00;55.20
1936;DHT22;969;49.892;10.896;2024-02-15T06:51:14;21.00;55.20
1936;DHT22;969;49.892;10.896;2024-02-15T06:53:41;21.00;55.20
1936;DHT22;969;49.892;10.896;2024-02-15T06:56:10;21.00;55.20
1936;DHT22;969;49.892;10.896;2024-02-15T06:58:36;21.00;55.20
1936;DHT22;969;49.892;10.896;2024-02-15T07:01:02;21.10;55.30
1936;DHT22;969;49.892;10.896;2024-02-15T07:03:30;21.10;55.30
1936;DHT22;969;49.892;10.896;2024-02-15T07:05:57;21.10;55.20
1936;DHT22;969;49.892;10.896;2024-02-15T07:08:23;21.10;55.30
1936;DHT22;969;49.892;10.896;2024-02-15T07:10:50;21.10;55.20
1936;DHT22;969;49.892;10.896;2024-02-15T07:13:17;21.10;55.30
1936;DHT22;969;49.892;10.896;2024-02-15T07:15:43;21.10;55.30
1936;DHT22;969;49.892;10.896;2024-02-15T07:18:09;21.10;55.30
1936;DHT22;969;49.892;10.896;2024-02-15T07:20:37;21.10;55.30
1936;DHT22;969;49.892;10.896;2024-02-15T07:23:03;21.10;55.30
1936;DHT22;969;49.892;10.896;2024-02-15T07:25:29;21.10;55.30
1936;DHT22;969;49.892;10.896;2024-02-15T07:27:54;21.10;55.30
1936;DHT22;969;49.892;10.896;2024-02-15T07:30:22;21.10;55.30
1936;DHT22;969;49.892;10.896;2024-02-15T07:32:49;21.10;55.30
1936;DHT22;969;49.892;10.896;2024-02-15T07:35:14;21.10;55.30
1936;DHT22;969;49.892;10.896;2024-02-15T07:37:51;21.10;55.30
1936;DHT22;969;49.892;10.896;2024-02-15T07:40:18;21.10;55.40
1936;DHT22;969;49.892;10.896;2024-02-15T07:42:44;21.10;55.40
1936;DHT22;969;49.892;10.896;2024-02-15T07:45:09;21.10;55.90
1936;DHT22;969;49.892;10.896;2024-02-15T07:47:36;21.10;55.90
1936;DHT22;969;49.892;10.896;2024-02-15T07:50:02;21.10;55.40
1936;DHT22;969;49.892;10.896;2024-02-15T07:52:28;21.10;55.40
1936;DHT22;969;49.892;10.896;2024-02-15T07:54:54;21.10;55.40
1936;DHT22;969;49.892;10.896;2024-02-15T07:57:20;21.10;55.40
1936;DHT22;969;49.892;10.896;2024-02-15T07:59:45;21.10;55.40
1936;DHT22;969;49.892;10.896;2024-02-15T08:02:13;21.10;55.40
1936;DHT22;969;49.892;10.896;2024-02-15T08:04:42;21.10;55.40
1936;DHT22;969;49.892;10.896;2024-02-15T08:07:10;21.10;55.40
1936;DHT22;969;49.892;10.896;2024-02-15T08:09:37;21.10;55.30
1936;DHT22;969;49.892;10.896;2024-02-15T08:12:03;21.10;55.30
1936;DHT22;969;49.892;10.896;2024-02-15T08:14:29;21.10;55.30
1936;DHT22;969;49.892;10.896;2024-02-15T08:16:55;21.10;55.30
1936;DHT22;969;49.892;10.896;2024-02-15T08:19:21;21.10;55.30
1936;DHT22;969;49.892;10.896;2024-02-15T08:21:48;21.20;55.40
1936;DHT22;969;49.892;10.896;2024-02-15T08:24:16;21.10;55.30
1936;DHT22;969;49.892;10.896;2024-02-15T08:26:42;21.20;55.40
1936;DHT22;969;49.892;10.896;2024-02-15T08:29:08;21.20;55.40
1936;DHT22;969;49.892;10.896;2024-02-15T08:31:40;21.20;55.40
1936;DHT22;969;49.892;10.896;2024-02-15T08:34:06;21.20;55.50
1936;DHT22;969;49.892;10.896;2024-02-15T08:36:35;21.20;55.40
1936;DHT22;969;49.892;10.896;2024-02-15T08:39:01;21.20;55.40
1936;DHT22;969;49.892;10.896;2024-02-15T08:41:27;21.20;55.40
1936;DHT22;969;49.892;10.896;2024-02-15T08:43:53;21.20;55.40
1936;DHT22;969;49.892;10.896;2024-02-15T08:46:19;21.20;55.40
1936;DHT22;969;49.892;10.896;2024-02-15T08:48:45;21.20;55.40
1936;DHT22;969;49.892;10.896;2024-02-15T08:51:12;21.20;55.50
1936;DHT22;969;49.892;10.896;2024-02-15T08:53:38;21.20;55.50
1936;DHT22;969;49.892;10.896;2024-02-15T08:56:06;21.20;55.50
1936;DHT22;969;49.892;10.896;2024-02-15T08:58:34;21.20;55.50
1936;DHT22;969;49.892;10.896;2024-02-15T09:01:00;21.20;55.50
1936;DHT22;969;49.892;10.896;2024-02-15T09:03:26;21.20;55.50
1936;DHT22;969;49.892;10.896;2024-02-15T09:05:51;21.20;55.50
1936;DHT22;969;49.892;10.896;2024-02-15T09:08:17;21.20;55.50
1936;DHT22;969;49.892;10.896;2024-02-15T09:10:47;21.20;55.50
1936;DHT22;969;49.892;10.896;2024-02-15T09:13:12;21.20;55.50
1936;DHT22;969;49.892;10.896;2024-02-15T09:15:38;21.20;55.50
1936;DHT22;969;49.892;10.896;2024-02-15T09:18:04;21.20;55.50
1936;DHT22;969;49.892;10.896;2024-02-15T09:20:30;21.20;55.50
1936;DHT22;969;49.892;10.896;2024-02-15T09:22:57;21.20;55.50
1936;DHT22;969;49.892;10.896;2024-02-15T09:25:23;21.20;55.50
1936;DHT22;969;49.892;10.896;2024-02-15T09:27:49;21.20;55.50
1936;DHT22;969;49.892;10.896;2024-02-15T09:30:15;21.20;55.50
1936;DHT22;969;49.892;10.896;2024-02-15T09:32:42;21.20;55.50
1936;DHT22;969;49.892;10.896;2024-02-15T09:35:09;21.20;55.60
1936;DHT22;969;49.892;10.896;2024-02-15T09:37:36;21.20;55.50
1936;DHT22;969;49.892;10.896;2024-02-15T09:40:08;21.20;55.50
1936;DHT22;969;49.892;10.896;2024-02-15T09:42:35;21.20;55.50
1936;DHT22;969;49.892;10.896;2024-02-15T09:45:02;21.20;55.60
1936;DHT22;969;49.892;10.896;2024-02-15T09:47:46;21.20;55.60
1936;DHT22;969;49.892;10.896;2024-02-15T09:50:15;21.20;55.60
1936;DHT22;969;49.892;10.896;2024-02-15T09:52:49;21.20;55.60
1936;DHT22;969;49.892;10.896;2024-02-15T09:55:15;21.20;55.60
1936;DHT22;969;49.892;10.896;2024-02-15T09:57:46;21.20;55.60
1936;DHT22;969;49.892;10.896;2024-02-15T10:00:12;21.20;55.60
1936;DHT22;969;49.892;10.896;2024-02-15T10:02:51;21.10;55.50
1936;DHT22;969;49.892;10.896;2024-02-15T10:05:21;21.20;55.70
1936;DHT22;969;49.892;10.896;2024-02-15T10:07:48;21.20;55.70
1936;DHT22;969;49.892;10.896;2024-02-15T10:10:24;21.20;55.70
1936;DHT22;969;49.892;10.896;2024-02-15T10:12:52;21.20;55.70
1936;DHT22;969;49.892;10.896;2024-02-15T10:15:39;21.20;55.70
1936;DHT22;969;49.892;10.896;2024-02-15T10:18:09;21.20;55.70
1936;DHT22;969;49.892;10.896;2024-02-15T10:20:40;21.20;55.70
1936;DHT22;969;49.892;10.896;2024-02-15T10:23:14;21.20;55.70
1936;DHT22;969;49.892;10.896;2024-02-15T10:25:42;21.20;55.70
1936;DHT22;969;49.892;10.896;2024-02-15T10:28:10;21.20;55.70
1936;DHT22;969;49.892;10.896;2024-02-15T10:30:43;21.20;55.70
1936;DHT22;969;49.892;10.896;2024-02-15T10:33:27;21.20;55.70
1936;DHT22;969;49.892;10.896;2024-02-15T10:36:06;21.20;55.70
1936;DHT22;969;49.892;10.896;2024-02-15T10:38:33;21.20;55.70
1936;DHT22;969;49.892;10.896;2024-02-15T10:41:07;21.20;55.70
1936;DHT22;969;49.892;10.896;2024-02-15T10:43:34;21.20;55.80
1936;DHT22;969;49.892;10.896;2024-02-15T10:46:00;21.20;55.80
1936;DHT22;969;49.892;10.896;2024-02-15T10:48:26;21.20;55.80
1936;DHT22;969;49.892;10.896;2024-02-15T10:50:55;21.20;55.80
1936;DHT22;969;49.892;10.896;2024-02-15T10:56:15;21.20;55.80
1936;DHT22;969;49.892;10.896;2024-02-15T10:59:10;21.20;55.70
1936;DHT22;969;49.892;10.896;2024-02-15T11:01:40;21.20;56.30
1936;DHT22;969;49.892;10.896;2024-02-15T11:04:08;21.20;55.80
1936;DHT22;969;49.892;10.896;2024-02-15T11:06:38;21.20;55.80
1936;DHT22;969;49.892;10.896;2024-02-15T11:09:07;21.20;55.80
1936;DHT22;969;49.892;10.896;2024-02-15T11:11:33;21.20;55.80
1936;DHT22;969;49.892;10.896;2024-02-15T11:14:25;21.20;55.80
1936;DHT22;969;49.892;10.896;2024-02-15T11:16:50;21.20;55.80
1936;DHT22;969;49.892;10.896;2024-02-15T11:22:00;21.20;55.80
1936;DHT22;969;49.892;10.896;2024-02-15T11:24:30;21.20;55.90
1936;DHT22;969;49.892;10.896;2024-02-15T11:27:04;21.10;55.80
1936;DHT22;969;49.892;10.896;2024-02-15T11:29:49;21.20;55.90
1936;DHT22;969;49.892;10.896;2024-02-15T11:35:16;21.20;55.90
1936;DHT22;969;49.892;10.896;2024-02-15T11:42:57;21.10;55.80
1936;DHT22;969;49.892;10.896;2024-02-15T11:45:27;21.10;55.80
1936;DHT22;969;49.892;10.896;2024-02-15T11:48:03;21.10;55.80
1936;DHT22;969;49.892;10.896;2024-02-15T11:50:34;21.10;55.80
1936;DHT22;969;49.892;10.896;2024-02-15T11:53:07;21.20;55.90
1936;DHT22;969;49.892;10.896;2024-02-15T11:55:37;21.10;55.80
1936;DHT22;969;49.892;10.896;2024-02-15T11:58:04;21.20;55.90
1936;DHT22;969;49.892;10.896;2024-02-15T12:00:31;21.10;55.80
1936;DHT22;969;49.892;10.896;2024-02-15T12:03:21;21.10;55.80
1936;DHT22;969;49.892;10.896;2024-02-15T12:06:05;21.10;55.80
1936;DHT22;969;49.892;10.896;2024-02-15T12:08:52;21.10;55.80
1936;DHT22;969;49.892;10.896;2024-02-15T12:11:36;21.10;55.80
1936;DHT22;969;49.892;10.896;2024-02-15T12:14:20;21.10;55.90
1936;DHT22;969;49.892;10.896;2024-02-15T12:17:09;21.10;55.90
1936;DHT22;969;49.892;10.896;2024-02-15T12:19:55;21.10;55.90
1936;DHT22;969;49.892;10.896;2024-02-15T12:22:26;21.10;55.90
1936;DHT22;969;49.892;10.896;2024-02-15T12:24:54;21.10;55.90
1936;DHT22;969;49.892;10.896;2024-02-15T12:27:20;21.10;55.90
1936;DHT22;969;49.892;10.896;2024-02-15T12:29:55;21.10;55.90
1936;DHT22;969;49.892;10.896;2024-02-15T12:32:23;21.10;55.90
1936;DHT22;969;49.892;10.896;2024-02-15T12:34:49;21.10;55.90
1936;DHT22;969;49.892;10.896;2024-02-15T12:37:18;21.10;55.90
1936;DHT22;969;49.892;10.896;2024-02-15T12:39:44;21.10;55.80
1936;DHT22;969;49.892;10.896;2024-02-15T12:42:09;21.10;55.80
1936;DHT22;969;49.892;10.896;2024-02-15T12:44:36;21.10;55.80
1936;DHT22;969;49.892;10.896;2024-02-15T12:47:02;21.10;55.90
1936;DHT22;969;49.892;10.896;2024-02-15T12:49:31;21.10;55.90
1936;DHT22;969;49.892;10.896;2024-02-15T12:55:18;21.10;55.80
1936;DHT22;969;49.892;10.896;2024-02-15T12:57:49;21.10;55.80
1936;DHT22;969;49.892;10.896;2024-02-15T13:00:26;21.10;55.80
1936;DHT22;969;49.892;10.896;2024-02-15T13:02:58;21.10;55.80
1936;DHT22;969;49.892;10.896;2024-02-15T13:05:27;21.10;55.80
1936;DHT22;969;49.892;10.896;2024-02-15T13:07:54;21.10;55.80
1936;DHT22;969;49.892;10.896;2024-02-15T13:10:36;21.10;55.80
1936;DHT22;969;49.892;10.896;2024-02-15T13:13:02;21.10;55.80
1936;DHT22;969;49.892;10.896;2024-02-15T13:15:28;21.10;55.70
1936;DHT22;969;49.892;10.896;2024-02-15T13:17:58;21.10;55.70
1936;DHT22;969;49.892;10.896;2024-02-15T13:20:24;21.10;55.80
1936;DHT22;969;49.892;10.896;2024-02-15T13:23:02;21.10;55.80
1936;DHT22;969;49.892;10.896;2024-02-15T13:25:34;21.10;55.80
1936;DHT22;969;49.892;10.896;2024-02-15T13:27:59;21.10;55.80
1936;DHT22;969;49.892;10.896;2024-02-15T13:30:25;21.10;55.90
1936;DHT22;969;49.892;10.896;2024-02-15T13:32:53;21.10;55.80
1936;DHT22;969;49.892;10.896;2024-02-15T13:35:22;21.10;55.90
1936;DHT22;969;49.892;10.896;2024-02-15T13:37:56;21.10;55.80
1936;DHT22;969;49.892;10.896;2024-02-15T13:40:28;21.10;55.80
1936;DHT22;969;49.892;10.896;2024-02-15T13:42:57;21.10;55.80
1936;DHT22;969;49.892;10.896;2024-02-15T13:45:30;21.10;55.80
1936;DHT22;969;49.892;10.896;2024-02-15T13:48:00;21.10;55.80
1936;DHT22;969;49.892;10.896;2024-02-15T13:50:29;21.10;55.80
1936;DHT22;969;49.892;10.896;2024-02-15T13:52:55;21.10;55.80
1936;DHT22;969;49.892;10.896;2024-02-15T13:55:21;21.10;55.80
1936;DHT22;969;49.892;10.896;2024-02-15T13:57:47;21.10;55.80
1936;DHT22;969;49.892;10.896;2024-02-15T14:00:15;21.10;55.80
1936;DHT22;969;49.892;10.896;2024-02-15T14:02:53;21.10;55.80
1936;DHT22;969;49.892;10.896;2024-02-15T14:05:21;21.10;55.80
1936;DHT22;969;49.892;10.896;2024-02-15T14:07:54;21.10;55.80
1936;DHT22;969;49.892;10.896;2024-02-15T14:10:21;21.10;55.80
1936;DHT22;969;49.892;10.896;2024-02-15T14:12:51;21.10;55.80
1936;DHT22;969;49.892;10.896;2024-02-15T14:15:33;21.10;55.80
1936;DHT22;969;49.892;10.896;2024-02-15T14:18:04;21.10;55.80
1936;DHT22;969;49.892;10.896;2024-02-15T14:20:30;21.10;55.80
1936;DHT22;969;49.892;10.896;2024-02-15T14:22:56;21.10;55.80
1936;DHT22;969;49.892;10.896;2024-02-15T14:25:22;21.10;55.80
1936;DHT22;969;49.892;10.896;2024-02-15T14:27:48;21.10;55.80
1936;DHT22;969;49.892;10.896;2024-02-15T14:30:14;21.10;55.70
1936;DHT22;969;49.892;10.896;2024-02-15T14:32:58;21.10;55.70
1936;DHT22;969;49.892;10.896;2024-02-15T14:35:35;21.10;55.70
1936;DHT22;969;49.892;10.896;2024-02-15T14:38:05;21.10;55.70
1936;DHT22;969;49.892;10.896;2024-02-15T14:40:45;21.10;55.70
1936;DHT22;969;49.892;10.896;2024-02-15T14:43:13;21.10;55.70
1936;DHT22;969;49.892;10.896;2024-02-15T14:45:40;21.10;55.70
1936;DHT22;969;49.892;10.896;2024-02-15T14:48:07;21.10;55.70
1936;DHT22;969;49.892;10.896;2024-02-15T14:50:39;21.10;55.70
1936;DHT22;969;49.892;10.896;2024-02-15T14:53:05;21.10;55.70
1936;DHT22;969;49.892;10.896;2024-02-15T14:55:36;21.10;55.70
1936;DHT22;969;49.892;10.896;2024-02-15T14:58:05;21.10;55.70
1936;DHT22;969;49.892;10.896;2024-02-15T15:00:35;21.10;55.70
1936;DHT22;969;49.892;10.896;2024-02-15T15:03:03;21.10;55.70
1936;DHT22;969;49.892;10.896;2024-02-15T15:05:29;21.10;55.70
1936;DHT22;969;49.892;10.896;2024-02-15T15:08:12;21.10;55.70
1936;DHT22;969;49.892;10.896;2024-02-15T15:10:56;21.10;55.80
1936;DHT22;969;49.892;10.896;2024-02-15T15:13:40;21.10;55.80
1936;DHT22;969;49.892;10.896;2024-02-15T15:16:06;21.10;55.80
1936;DHT22;969;49.892;10.896;2024-02-15T15:18:33;21.10;55.80
1936;DHT22;969;49.892;10.896;2024-02-15T15:20:59;21.10;55.70
1936;DHT22;969;49.892;10.896;2024-02-15T15:23:26;21.10;55.70
1936;DHT22;969;49.892;10.896;2024-02-15T15:25:52;21.10;55.70
1936;DHT22;969;49.892;10.896;2024-02-15T15:28:18;21.10;55.70
1936;DHT22;969;49.892;10.896;2024-02-15T15:30:44;21.10;55.70
1936;DHT22;969;49.892;10.896;2024-02-15T15:33:15;21.10;55.70
1936;DHT22;969;49.892;10.896;2024-02-15T15:35:41;21.10;55.70
1936;DHT22;969;49.892;10.896;2024-02-15T15:38:06;21.10;55.60
1936;DHT22;969;49.892;10.896;2024-02-15T15:40:32;21.10;55.60
1936;DHT22;969;49.892;10.896;2024-02-15T15:42:58;21.10;55.60
1936;DHT22;969;49.892;10.896;2024-02-15T15:45:24;21.10;55.60
1936;DHT22;969;49.892;10.896;2024-02-15T15:47:50;21.10;55.60
1936;DHT22;969;49.892;10.896;2024-02-15T15:50:16;21.10;55.50
1936;DHT22;969;49.892;10.896;2024-02-15T15:52:42;21.10;55.50
1936;DHT22;969;49.892;10.896;2024-02-15T15:55:10;21.20;55.60
1936;DHT22;969;49.892;10.896;2024-02-15T15:57:40;21.20;55.50
1936;DHT22;969;49.892;10.896;2024-02-15T16:00:10;21.20;55.50
1936;DHT22;969;49.892;10.896;2024-02-15T16:02:42;21.20;55.50
1936;DHT22;969;49.892;10.896;2024-02-15T16:05:20;21.20;55.50
1936;DHT22;969;49.892;10.896;2024-02-15T16:07:46;21.20;55.50
1936;DHT22;969;49.892;10.896;2024-02-15T16:10:12;21.20;55.60
1936;DHT22;969;49.892;10.896;2024-02-15T16:12:39;21.20;55.50
1936;DHT22;969;49.892;10.896;2024-02-15T16:15:12;21.20;55.60
1936;DHT22;969;49.892;10.896;2024-02-15T16:17:44;21.20;55.60
1936;DHT22;969;49.892;10.896;2024-02-15T16:20:11;21.20;55.60
1936;DHT22;969;49.892;10.896;2024-02-15T16:22:39;21.20;55.60
1936;DHT22;969;49.892;10.896;2024-02-15T16:25:06;21.20;55.60
1936;DHT22;969;49.892;10.896;2024-02-15T16:27:37;21.20;55.60
1936;DHT22;969;49.892;10.896;2024-02-15T16:30:04;21.20;55.60